createdAt,value
2023-06-04T00:03:53.257Z,49.86
2023-06-04T00:13:57.011Z,50.19
2023-06-04T00:24:01.594Z,50.08
2023-06-04T00:34:07.929Z,50.51
2023-06-04T00:44:12.923Z,51.00
2023-06-04T00:54:19.907Z,51.55
2023-06-04T01:04:51.352Z,51.53
2023-06-04T01:14:55.142Z,51.77
2023-06-04T01:25:06.759Z,52.16
2023-06-04T01:35:13.665Z,52.50
2023-06-04T01:45:17.469Z,52.81
2023-06-04T01:55:23.724Z,53.07
2023-06-04T02:05:29.244Z,52.88
2023-06-04T02:15:35.288Z,52.63
2023-06-04T02:25:41.091Z,52.38
2023-06-04T02:35:47.046Z,52.66
2023-06-04T02:45:52.642Z,52.56
2023-06-04T02:55:56.870Z,52.51
2023-06-04T03:06:01.130Z,51.84
2023-06-04T03:16:11.008Z,51.35
2023-06-04T03:26:15.233Z,51.40
2023-06-04T03:36:21.927Z,51.25
2023-06-04T03:46:30.132Z,48.84
2023-06-04T03:56:36.960Z,37.13
2023-06-04T04:06:41.427Z,33.39
2023-06-04T04:16:48.448Z,26.89
2023-06-04T04:26:56.054Z,18.80
2023-06-04T04:37:00.680Z,15.10
2023-06-04T04:47:04.938Z,12.90
2023-06-04T04:57:14.167Z,11.32
2023-06-04T05:07:24.754Z,10.96
2023-06-04T05:17:31.615Z,10.30
2023-06-04T05:27:41.316Z,9.94
2023-06-04T05:37:55.102Z,9.75
2023-06-04T05:48:04.124Z,12.62
2023-06-04T05:58:08.040Z,15.98
2023-06-04T06:08:13.591Z,18.97
2023-06-04T06:18:17.437Z,21.02
2023-06-04T06:28:21.333Z,22.78
2023-06-04T06:38:28.763Z,24.38
2023-06-04T06:48:32.458Z,24.87
2023-06-04T06:58:36.538Z,24.87
2023-06-04T07:08:41.884Z,25.81
2023-06-04T07:18:49.032Z,26.15
2023-06-04T07:28:55.566Z,25.19
2023-06-04T07:39:01.421Z,25.08
2023-06-04T07:49:07.041Z,24.76
2023-06-04T07:59:10.724Z,24.26
2023-06-04T08:09:14.861Z,23.71
2023-06-04T08:19:18.552Z,23.03
2023-06-04T08:29:22.460Z,23.23
2023-06-04T08:39:26.269Z,22.36
2023-06-04T08:49:37.895Z,22.19
2023-06-04T08:59:43.710Z,21.72
2023-06-04T09:09:57.640Z,21.49
2023-06-04T09:20:24.688Z,21.35
2023-06-04T09:30:28.418Z,21.03
2023-06-04T09:40:38.900Z,22.05
2023-06-04T09:50:46.697Z,21.93
2023-06-04T10:00:56.778Z,21.75
2023-06-04T10:11:04.895Z,21.82
2023-06-04T10:21:10.527Z,20.52
2023-06-04T10:31:14.149Z,19.82
2023-06-04T10:41:19.382Z,20.23
2023-06-04T10:51:35.796Z,20.74
2023-06-04T11:01:40.430Z,20.40
2023-06-04T11:11:45.008Z,19.64
2023-06-04T11:21:52.378Z,20.16
2023-06-04T11:31:56.700Z,19.67
2023-06-04T11:42:00.933Z,19.96
2023-06-04T11:52:07.135Z,20.06
2023-06-04T12:02:14.119Z,19.08
2023-06-04T12:12:26.577Z,19.04
2023-06-04T12:22:32.761Z,18.72
2023-06-04T12:32:37.517Z,18.57
2023-06-04T12:42:44.502Z,18.57
2023-06-04T12:52:48.575Z,18.43
2023-06-04T13:02:54.400Z,18.01
2023-06-04T13:13:00.667Z,18.40
2023-06-04T13:23:04.446Z,19.13
2023-06-04T13:33:08.911Z,19.86
2023-06-04T13:43:14.605Z,20.32
2023-06-04T13:53:19.019Z,20.27
2023-06-04T14:03:23.189Z,19.35
2023-06-04T14:13:29.427Z,18.76
2023-06-04T14:23:34.336Z,18.35
2023-06-04T14:33:38.436Z,18.93
2023-06-04T14:43:43.581Z,18.89
2023-06-04T14:53:48.188Z,20.03
2023-06-04T15:03:51.931Z,20.06
2023-06-04T15:13:55.902Z,19.95
2023-06-04T15:23:59.797Z,20.20
2023-06-04T15:34:03.668Z,20.27
2023-06-04T15:44:09.330Z,20.43
2023-06-04T15:54:13.880Z,20.53
2023-06-04T16:04:21.589Z,20.98
2023-06-04T16:14:25.960Z,21.14
2023-06-04T16:24:31.510Z,21.14
2023-06-04T16:34:37.377Z,21.52
2023-06-04T16:44:41.307Z,21.48
2023-06-04T16:54:47.681Z,21.68
2023-06-04T17:04:57.202Z,21.90
2023-06-04T17:15:00.966Z,22.33
2023-06-04T17:25:06.529Z,22.33
2023-06-04T17:35:11.350Z,22.61
2023-06-04T17:45:15.661Z,22.72
2023-06-04T17:55:21.650Z,22.58
2023-06-04T18:05:25.401Z,23.16
2023-06-04T18:15:29.957Z,23.61
2023-06-04T18:25:33.645Z,24.14
2023-06-04T18:35:37.706Z,25.15
2023-06-04T18:45:41.359Z,26.20
2023-06-04T18:55:45.610Z,27.83
2023-06-04T19:05:51.543Z,30.19
2023-06-04T19:15:55.282Z,31.55
2023-06-04T19:26:00.328Z,32.08
2023-06-04T19:36:07.138Z,33.07
2023-06-04T19:46:11.334Z,34.12
2023-06-04T19:56:15.166Z,35.02
2023-06-04T20:06:20.081Z,35.85
2023-06-04T20:16:24.274Z,36.75
2023-06-04T20:26:29.614Z,37.63
2023-06-04T20:36:36.760Z,38.60
2023-06-04T20:46:40.700Z,39.37
2023-06-04T20:56:44.673Z,40.13
2023-06-04T21:06:48.559Z,40.97
2023-06-04T21:16:53.350Z,41.76
2023-06-04T21:26:57.154Z,42.00
2023-06-04T21:37:01.152Z,41.96
2023-06-04T21:47:06.373Z,42.01
2023-06-04T21:57:10.171Z,42.07
2023-06-04T22:07:14.208Z,42.87
2023-06-04T22:17:19.338Z,44.35
2023-06-04T22:27:23.288Z,44.69
2023-06-04T22:37:27.015Z,45.14
2023-06-04T22:47:33.585Z,45.95
2023-06-04T22:57:38.889Z,45.78
2023-06-04T23:07:42.645Z,46.09
2023-06-04T23:17:46.460Z,46.28
2023-06-04T23:27:50.209Z,46.62
2023-06-04T23:37:54.102Z,47.11
2023-06-04T23:48:58.468Z,47.51
2023-06-04T23:59:02.206Z,48.06
